Weather observations for the past three days for
Ephrata, Ephrata Municipal Airport
Metric (Imperial)
Date Time (pdt) Wind (kph) Vis. (km) Weather Sky Cond. Temperature (ºC) Relative Humidity Wind Chill (°C) Heat Index (°C) Pressure Precipitation (cm)
Air Dwpt 6 hour altimeter (cm) sea level (mb) 1 hr 3 hr 6 hr
Max. Min.
02 11:53 S 26 G 46 16.09 A Few Clouds FEW100 23.3 6.1 33% 75.46 1005.5
02 10:53 S 20 16.09 Fair CLR 21.1 8.3 21.1 11.1 44% 75.49 1005.7
02 09:53 SW 13 16.09 Fair CLR 19.4 9.4 53% 75.49 1005.8
02 08:53 Calm 16.09 Fair CLR 14.4 9.4 72% 75.51 1006.3
02 07:53 Calm 16.09 Fair CLR 12.2 8.9 80% 75.46 1005.8
02 06:53 NE 11 16.09 Mostly Cloudy BKN100 11.7 8.3 80% 75.46 1005.6
02 05:53 N 7 16.09 Overcast OVC100 12.2 7.8 75% 75.49 1006.0
02 04:53 Calm 16.09 Fair CLR 11.1 7.8 18.3 11.1 80% 75.41 1004.9
02 03:53 N 7 16.09 Partly Cloudy SCT110 13.3 7.8 70% 75.41 1004.8
02 02:53 W 6 16.09 Fair CLR 13.9 7.8 67% 75.39 1004.5
02 01:53 Calm 16.09 Fair CLR 13.9 7.2 64% 75.41 1004.7
02 00:53 NE 11 16.09 Fair CLR 16.7 7.8 56% 75.39 1004.5
01 23:53 N 15 16.09 Fair CLR 17.2 7.8 54% 75.39 1004.2
01 22:53 Calm 16.09 Fair CLR 17.2 7.8 26.7 16.1 54% 75.41 1004.6
01 21:53 N 6 16.09 Fair CLR 18.9 7.8 49% 75.39 1004.2
01 20:53 Calm 16.09 Fair CLR 20 7.2 44% 75.39 1004.3
01 19:53 N 7 16.09 Fair CLR 21.1 6.7 39% 75.34 1003.7
01 18:53 SE 7 16.09 Fair CLR 23.3 6.7 34% 75.34 1003.8
01 17:53 SE 15 16.09 Fair CLR 25.6 7.2 31% 26 75.34 1003.6
01 16:53 Vrbl 7 16.09 Fair CLR 25.6 6.7 26.7 23.9 30% 26 75.34 1003.6
01 15:53 Calm 16.09 Fair CLR 25 7.8 33% 25 75.39 1004.1
01 14:53 S 17 16.09 Fair CLR 24.4 7.8 35% 25 75.39 1004.4
01 13:53 S 19 16.09 Fair CLR 24.4 6.7 32% 25 75.41 1004.6
01 12:53 S 19 16.09 Fair CLR 25 7.8 33% 25 75.41 1004.7
01 11:53 Vrbl 6 16.09 Fair CLR 25.6 6.7 30% 26 75.44 1005.0
01 10:53 NE 13 16.09 Fair CLR 25 6.1 25.6 16.7 30% 25 75.49 1005.6
01 09:53 NE 17 16.09 Fair CLR 24.4 6.1 31% 25 75.49 1005.4
01 08:53 N 13 16.09 A Few Clouds FEW110 21.7 5.6 35% 75.57 1006.4
01 07:53 N 9 16.09 Fair CLR 20 5.6 39% 75.51 1005.9
01 06:53 N 13 16.09 Fair CLR 17.2 5.6 47% 75.51 1005.8
01 05:53 N 7 16.09 Fair CLR 17.8 5 43% 75.51 1005.8
01 04:53 N 15 16.09 Fair CLR 18.3 5 21.7 18.3 42% 75.51 1006.0
01 03:53 N 15 16.09 Fair CLR 18.9 4.4 39% 75.54 1006.1
01 02:53 NW 15 16.09 Fair CLR 20 3.9 35% 75.54 1006.0
01 01:53 N 9 16.09 Fair CLR 19.4 3.9 36% 75.54 1006.4
01 00:53 N 11 16.09 Fair CLR 19.4 3.3 35% 75.57 1006.8
31 23:53 N 13 16.09 Fair CLR 20 3.3 33% 75.57 1006.8
31 22:53 NW 13 16.09 Fair CLR 21.7 3.3 28.9 20.6 30% 75.62 1007.2
31 21:53 N 13 16.09 Fair CLR 21.7 3.9 31% 75.62 1007.6
31 20:53 NW 19 16.09 Fair CLR 23.9 2.8 25% 25 75.59 1007.2
31 19:53 NW 9 16.09 Fair CLR 25 3.3 24% 25 75.59 1007.3
31 18:53 N 11 16.09 Fair CLR 27.8 3.3 21% 27 75.62 1007.6
31 17:53 S 7 16.09 Fair CLR 28.3 3.3 20% 27 75.67 1008.2
31 16:53 Vrbl 7 16.09 Fair CLR 28.3 3.3 29.4 22.2 20% 27 75.72 1009.0
31 15:53 Calm 16.09 Fair CLR 28.3 2.8 19% 27 75.79 1009.9
31 14:53 Calm 16.09 Fair CLR 28.3 2.8 19% 27 75.87 1010.8
31 13:53 Calm 16.09 Fair CLR 26.1 2.8 22% 26 75.92 1011.6
31 12:53 Calm 16.09 Fair CLR 25 2.8 24% 25 76 1012.7
31 11:53 Vrbl 6 16.09 Fair CLR 23.3 2.8 26% 76.07 1013.9
31 10:53 Calm 16.09 Fair CLR 22.2 3.9 22.2 8.9 30% 76.12 1014.4
31 09:53 N 13 16.09 Fair CLR 20 4.4 36% 76.15 1014.7
31 08:53 N 13 16.09 Fair CLR 17.2 7.2 52% 76.17 1015.3
31 07:53 N 9 16.09 Fair CLR 13.9 7.2 64% 76.17 1015.4
31 06:53 N 9 16.09 Fair CLR 11.7 6.7 72% 76.15 1014.9
31 05:53 NE 9 16.09 Fair CLR 10 5 71% 9 76.12 1014.6
31 04:53 N 11 16.09 Fair CLR 10 6.1 15 9.4 77% 9 76.12 1014.7
31 03:53 NE 9 16.09 Fair CLR 9.4 6.1 80% 8 76.12 1014.8
31 02:53 N 6 16.09 Fair CLR 11.1 6.7 75% 76.15 1014.7
31 01:53 N 7 16.09 Fair CLR 12.2 6.7 69% 76.15 1014.9
31 00:53 NE 9 16.09 Fair CLR 11.7 6.1 69% 76.15 1014.9
30 23:53 Calm 16.09 Fair CLR 11.7 5.6 66% 76.15 1014.9
30 22:53 W 6 16.09 Fair CLR 15 6.1 23.9 15 56% 76.15 1015.0
30 21:53 Calm 16.09 Fair CLR 17.8 6.7 48% 76.15 1015.1
30 20:53 Calm 16.09 Fair CLR 16.7 6.1 50% 76.15 1015.2
30 19:53 SE 11 16.09 Fair CLR 18.3 6.1 45% 76.12 1014.8
30 18:53 SE 17 16.09 Fair CLR 21.7 5.6 35% 76.1 1014.5
30 17:53 S 13 16.09 Fair CLR 23.3 3.9 28% 76.1 1014.3
30 16:53 S 11 16.09 Fair CLR 23.9 3.3 24.4 18.3 26% 25 76.1 1014.4
30 15:53 S 9 G 28 16.09 Fair CLR 23.3 3.9 28% 76.15 1015.0
30 14:53 S 19 16.09 Fair CLR 23.9 4.4 28% 25 76.2 1015.5
30 13:53 SW 11 16.09 Fair CLR 22.2 4.4 31% 76.25 1016.2
30 12:53 S 20 G 33 16.09 Fair CLR 21.7 5.6 35% 76.25 1016.3
Date Time (pdt) Wind (kph) Vis. (km) Weather Sky Cond. Air Dwpt Max. Min. Relative Humidity Wind Chill (°C) Heat Index (°C) altimeter (cm) sea level (mb) 1 hr 3 hr 6 hr
6 hour
Temperature (ºC) Pressure Precipitation (cm)